Beaver Islander — WT5906 — position and weather

sailwx.info

Track history (hours):
 
Tides and Currents Weather Stations Pressure Air Temp Water Temp Dewpoint Dewpoint Depression Visibility Wind Speed Wind Dir Waves Ship Positions

Beaver Islander

Owner: BEAVER ISLAND BOAT CO, CHARLEVOIX, MI. More information available from US FCC via Universal Licensing System and Coast Guard Vessel Documentation Center.

Last reported at 2017-May-18 18:01 UTC. Time now 2017-May-26 20:47 UTC.
Position N 45°45' W 085°31'.
Warning: this ship's position is 8 days out of date.

Length 28 m; draft 3 m.

Type: Passenger vessel. MMSI: 366936060.

Date/timePositionNaut miles runAvg speedWind from/ knotsBaromVisibWave heightAir tempDewpointWater temp
2017-May-18 18:01N 45°45' W 085°31'0 0.0
2017-May-18 17:59N 45°45' W 085°31'3 5.6
2017-May-18 17:30N 45°43' W 085°28'612.9
2017-May-18 17:00N 45°37' W 085°25'713.0
2017-May-18 16:30N 45°31' W 085°22'713.0
2017-May-18 16:00N 45°25' W 085°19'611.8
2017-May-18 15:30N 45°19' W 085°15'0 0.0
2017-May-17 17:57N 45°19' W 085°15'1 3.1
2017-May-17 17:31N 45°19' W 085°14'0 0.3
2017-May-17 17:00N 45°19' W 085°14'0 0.6
2017-May-17 16:31N 45°19' W 085°14'0 0.9
2017-May-17 16:01N 45°18' W 085°14'1 2.4
2017-May-17 15:30N 45°19' W 085°15'1 2.4
2017-May-17 15:00N 45°19' W 085°14'0 0.5
2017-May-17 14:30N 45°18' W 085°14'0 0.3
2017-May-17 13:31N 45°18' W 085°14'1 2.2
2017-May-17 13:00N 45°19' W 085°15'0 0.0
2017-May-16 18:00N 45°19' W 085°15'1 2.3
2017-May-16 17:31N 45°18' W 085°14'0 0.5
2017-May-16 17:01N 45°18' W 085°14'0 0.6
2017-May-16 16:31N 45°18' W 085°13'0 0.5
2017-May-16 16:01N 45°18' W 085°14'1 2.4
2017-May-16 15:25N 45°19' W 085°15'1 1.6
2017-May-16 15:01N 45°19' W 085°15'1 1.0
2017-May-16 14:01N 45°18' W 085°13'0 0.4
2017-May-16 13:29N 45°18' W 085°13'2 0.1
2017-May-15 15:31N 45°19' W 085°15'0 1.7
2017-May-15 15:30N 45°19' W 085°15'510.7
2017-May-15 15:00N 45°24' W 085°19'1313.4
2017-May-15 14:00N 45°36' W 085°25'713.3
2017-May-15 13:30N 45°43' W 085°28'3 5.0
2017-May-15 12:58N 45°45' W 085°31'  
2017-May-11 15:19N 45°45' W 085°31'2 6.1
2017-May-11 15:00N 45°44' W 085°29'2 3.5
2017-May-11 14:28N 45°45' W 085°31'0 0.0
2017-May-11 13:28N 45°45' W 085°31'0 0.0
2017-May-11 12:58N 45°45' W 085°31'0 0.0
2017-May-11 12:22N 45°45' W 085°31'  
Track history (hours):
 
Tides and Currents Weather Stations Pressure Air Temp Water Temp Dewpoint Dewpoint Depression Visibility Wind Speed Wind Dir Waves Ship Positions

Beaver Islander

Owner: BEAVER ISLAND BOAT CO, CHARLEVOIX, MI. More information available from US FCC via Universal Licensing System and Coast Guard Vessel Documentation Center.

Last reported at 2017-May-18 18:01 UTC. Time now 2017-May-26 20:47 UTC.
Position N 45°45' W 085°31'.
Warning: this ship's position is 8 days out of date.

Length 28 m; draft 3 m.

Type: Passenger vessel. MMSI: 366936060.

Date/timePositionNaut miles runAvg speedWind from/ knotsBaromVisibWave heightAir tempDewpointWater temp
2017-May-18 18:01N 45°45' W 085°31'0 0.0
2017-May-18 17:59N 45°45' W 085°31'3 5.6
2017-May-18 17:30N 45°43' W 085°28'612.9
2017-May-18 17:00N 45°37' W 085°25'713.0
2017-May-18 16:30N 45°31' W 085°22'713.0
2017-May-18 16:00N 45°25' W 085°19'611.8
2017-May-18 15:30N 45°19' W 085°15'0 0.0
2017-May-17 17:57N 45°19' W 085°15'1 3.1
2017-May-17 17:31N 45°19' W 085°14'0 0.3
2017-May-17 17:00N 45°19' W 085°14'0 0.6
2017-May-17 16:31N 45°19' W 085°14'0 0.9
2017-May-17 16:01N 45°18' W 085°14'1 2.4
2017-May-17 15:30N 45°19' W 085°15'1 2.4
2017-May-17 15:00N 45°19' W 085°14'0 0.5
2017-May-17 14:30N 45°18' W 085°14'0 0.3
2017-May-17 13:31N 45°18' W 085°14'1 2.2
2017-May-17 13:00N 45°19' W 085°15'0 0.0
2017-May-16 18:00N 45°19' W 085°15'1 2.3
2017-May-16 17:31N 45°18' W 085°14'0 0.5
2017-May-16 17:01N 45°18' W 085°14'0 0.6
2017-May-16 16:31N 45°18' W 085°13'0 0.5
2017-May-16 16:01N 45°18' W 085°14'1 2.4
2017-May-16 15:25N 45°19' W 085°15'1 1.6
2017-May-16 15:01N 45°19' W 085°15'1 1.0
2017-May-16 14:01N 45°18' W 085°13'0 0.4
2017-May-16 13:29N 45°18' W 085°13'2 0.1
2017-May-15 15:31N 45°19' W 085°15'0 1.7
2017-May-15 15:30N 45°19' W 085°15'510.7
2017-May-15 15:00N 45°24' W 085°19'1313.4
2017-May-15 14:00N 45°36' W 085°25'713.3
2017-May-15 13:30N 45°43' W 085°28'3 5.0
2017-May-15 12:58N 45°45' W 085°31'  
2017-May-11 15:19N 45°45' W 085°31'2 6.1
2017-May-11 15:00N 45°44' W 085°29'2 3.5
2017-May-11 14:28N 45°45' W 085°31'0 0.0
2017-May-11 13:28N 45°45' W 085°31'0 0.0
2017-May-11 12:58N 45°45' W 085°31'0 0.0
2017-May-11 12:22N 45°45' W 085°31'  

Dump ship's entire track history